Time;durP1;ratioP1;P1;durP2;ratioP2;P2;SDS_P1;SDS_P2;PMS_P1;PMS_P2;Temp;Humidity;BMP_temperature;BMP_pressure;BME280_temperature;BME280_humidity;BME280_pressure;Samples;Min_cycle;Max_cycle;Signal;HPM_P1;HPM_P2
2024/03/19 00:02:11;;;;;;;1.1;0.8;;;;;;;;;;;;;
2024/03/19 00:04:35;;;;;;;2.1;1;;;;;;;;;;;;;
2024/03/19 00:07:01;;;;;;;3;2;;;;;;;;;;;;;
2024/03/19 00:09:26;;;;;;;3.1;2.2;;;;;;;;;;;;;
2024/03/19 00:11:51;;;;;;;4;1.9;;;;;;;;;;;;;
2024/03/19 00:14:16;;;;;;;1.2;1.1;;;;;;;;;;;;;
2024/03/19 00:16:41;;;;;;;1.3;1.2;;;;;;;;;;;;;
2024/03/19 00:19:08;;;;;;;2.3;1.7;;;;;;;;;;;;;
2024/03/19 00:21:31;;;;;;;2.2;1.3;;;;;;;;;;;;;
2024/03/19 00:23:57;;;;;;;1;0.7;;;;;;;;;;;;;
2024/03/19 00:26:21;;;;;;;1.1;0.9;;;;;;;;;;;;;
2024/03/19 00:28:47;;;;;;;1.4;1;;;;;;;;;;;;;
2024/03/19 00:31:12;;;;;;;1.1;1;;;;;;;;;;;;;
2024/03/19 00:33:37;;;;;;;2.9;1.1;;;;;;;;;;;;;
2024/03/19 00:36:02;;;;;;;1.5;1.2;;;;;;;;;;;;;
2024/03/19 00:38:27;;;;;;;1.3;1;;;;;;;;;;;;;
2024/03/19 00:40:53;;;;;;;1.3;1.1;;;;;;;;;;;;;
2024/03/19 00:43:18;;;;;;;1.3;1.1;;;;;;;;;;;;;
2024/03/19 00:45:43;;;;;;;1.5;1.3;;;;;;;;;;;;;
2024/03/19 00:48:08;;;;;;;2.3;1.6;;;;;;;;;;;;;
2024/03/19 00:50:33;;;;;;;1.9;1.7;;;;;;;;;;;;;
2024/03/19 00:52:58;;;;;;;1.7;1.6;;;;;;;;;;;;;
2024/03/19 00:55:23;;;;;;;2.4;1.5;;;;;;;;;;;;;
2024/03/19 00:57:49;;;;;;;1.2;1.1;;;;;;;;;;;;;
2024/03/19 01:00:14;;;;;;;1.2;1.1;;;;;;;;;;;;;
2024/03/19 01:02:39;;;;;;;1.6;1;;;;;;;;;;;;;
2024/03/19 01:05:08;;;;;;;1.8;1.1;;;;;;;;;;;;;
2024/03/19 01:07:29;;;;;;;1.7;1;;;;;;;;;;;;;
2024/03/19 01:09:54;;;;;;;1.5;1;;;;;;;;;;;;;
2024/03/19 01:12:19;;;;;;;2.9;1.1;;;;;;;;;;;;;
2024/03/19 01:14:44;;;;;;;1.4;0.8;;;;;;;;;;;;;
2024/03/19 01:17:12;;;;;;;0.6;0.6;;;;;;;;;;;;;
2024/03/19 01:19:35;;;;;;;0.7;0.7;;;;;;;;;;;;;
2024/03/19 01:22:00;;;;;;;0.8;0.8;;;;;;;;;;;;;
2024/03/19 01:24:25;;;;;;;0.5;0.5;;;;;;;;;;;;;
2024/03/19 01:26:51;;;;;;;1;0.8;;;;;;;;;;;;;
2024/03/19 01:29:15;;;;;;;0.6;0.6;;;;;;;;;;;;;
2024/03/19 01:31:40;;;;;;;0.7;0.7;;;;;;;;;;;;;
2024/03/19 01:34:05;;;;;;;1;1;;;;;;;;;;;;;
2024/03/19 01:36:30;;;;;;;0.9;0.9;;;;;;;;;;;;;
2024/03/19 01:38:55;;;;;;;1.1;1;;;;;;;;;;;;;
2024/03/19 01:41:21;;;;;;;0.8;0.8;;;;;;;;;;;;;
2024/03/19 01:43:45;;;;;;;0.6;0.6;;;;;;;;;;;;;
2024/03/19 01:46:10;;;;;;;0.7;0.7;;;;;;;;;;;;;
2024/03/19 01:48:36;;;;;;;0.9;0.8;;;;;;;;;;;;;
2024/03/19 01:51:01;;;;;;;1.7;0.9;;;;;;;;;;;;;
2024/03/19 01:53:26;;;;;;;3;2.1;;;;;;;;;;;;;
2024/03/19 01:55:51;;;;;;;2.2;2;;;;;;;;;;;;;
2024/03/19 01:58:16;;;;;;;2.9;2.2;;;;;;;;;;;;;
2024/03/19 02:00:41;;;;;;;2.8;2.2;;;;;;;;;;;;;
2024/03/19 02:03:06;;;;;;;2.7;1.6;;;;;;;;;;;;;
2024/03/19 02:05:31;;;;;;;1.7;1.5;;;;;;;;;;;;;
2024/03/19 02:07:56;;;;;;;2.5;1.5;;;;;;;;;;;;;
2024/03/19 02:10:21;;;;;;;1.6;1.3;;;;;;;;;;;;;
2024/03/19 02:12:46;;;;;;;1.6;1.5;;;;;;;;;;;;;
2024/03/19 02:15:12;;;;;;;2.9;1.9;;;;;;;;;;;;;
2024/03/19 02:17:37;;;;;;;2.5;1.7;;;;;;;;;;;;;
2024/03/19 02:20:12;;;;;;;2.2;2;;;;;;;;;;;;;
2024/03/19 02:22:27;;;;;;;1.8;1.7;;;;;;;;;;;;;
2024/03/19 02:24:52;;;;;;;3.4;1.9;;;;;;;;;;;;;
2024/03/19 02:27:17;;;;;;;1.9;1.7;;;;;;;;;;;;;
2024/03/19 02:29:45;;;;;;;2.4;1.6;;;;;;;;;;;;;
2024/03/19 02:32:08;;;;;;;2.2;1.7;;;;;;;;;;;;;
2024/03/19 02:34:33;;;;;;;3.3;2.2;;;;;;;;;;;;;
2024/03/19 02:36:58;;;;;;;3;2.6;;;;;;;;;;;;;
2024/03/19 02:39:23;;;;;;;3.5;2.6;;;;;;;;;;;;;
2024/03/19 02:41:49;;;;;;;4.5;2.3;;;;;;;;;;;;;
2024/03/19 02:44:14;;;;;;;3.7;2.6;;;;;;;;;;;;;
2024/03/19 02:46:39;;;;;;;3;2.4;;;;;;;;;;;;;
2024/03/19 02:49:04;;;;;;;3.3;2.2;;;;;;;;;;;;;
2024/03/19 02:51:29;;;;;;;2.9;2.3;;;;;;;;;;;;;
2024/03/19 02:53:54;;;;;;;2.1;1.8;;;;;;;;;;;;;
2024/03/19 02:56:20;;;;;;;2.4;2.2;;;;;;;;;;;;;
2024/03/19 02:58:44;;;;;;;3.9;2.2;;;;;;;;;;;;;
2024/03/19 03:01:09;;;;;;;2.4;1.6;;;;;;;;;;;;;
2024/03/19 03:03:34;;;;;;;1.7;1.6;;;;;;;;;;;;;
2024/03/19 03:05:59;;;;;;;2.1;1.8;;;;;;;;;;;;;
2024/03/19 03:08:26;;;;;;;1.4;1.3;;;;;;;;;;;;;
2024/03/19 03:10:50;;;;;;;1.8;1.6;;;;;;;;;;;;;
2024/03/19 03:13:15;;;;;;;2;1.5;;;;;;;;;;;;;
2024/03/19 03:15:40;;;;;;;1.3;1.2;;;;;;;;;;;;;
2024/03/19 03:18:05;;;;;;;1.7;1.4;;;;;;;;;;;;;
2024/03/19 03:20:30;;;;;;;1.8;1.5;;;;;;;;;;;;;
2024/03/19 03:22:55;;;;;;;1.4;1.2;;;;;;;;;;;;;
2024/03/19 03:25:21;;;;;;;1.2;1;;;;;;;;;;;;;
2024/03/19 03:27:45;;;;;;;1.7;1.6;;;;;;;;;;;;;
2024/03/19 03:30:10;;;;;;;1.3;1.1;;;;;;;;;;;;;
2024/03/19 03:32:36;;;;;;;2.1;1.8;;;;;;;;;;;;;
2024/03/19 03:35:02;;;;;;;3.5;1.8;;;;;;;;;;;;;
2024/03/19 03:37:26;;;;;;;1.7;1.5;;;;;;;;;;;;;
2024/03/19 03:39:51;;;;;;;3;1.6;;;;;;;;;;;;;
2024/03/19 03:42:16;;;;;;;1.9;1.7;;;;;;;;;;;;;
2024/03/19 03:44:41;;;;;;;2;1.7;;;;;;;;;;;;;
2024/03/19 03:47:06;;;;;;;2.5;1.9;;;;;;;;;;;;;
2024/03/19 03:49:32;;;;;;;2;1.6;;;;;;;;;;;;;
2024/03/19 03:51:57;;;;;;;2.4;1.9;;;;;;;;;;;;;
2024/03/19 03:54:22;;;;;;;2.1;1.9;;;;;;;;;;;;;
2024/03/19 03:56:48;;;;;;;1.7;1.6;;;;;;;;;;;;;
2024/03/19 03:59:12;;;;;;;1.8;1.5;;;;;;;;;;;;;
2024/03/19 04:02:31;;;;;;;1.7;1.5;;;;;;;;;;;;;
2024/03/19 04:04:56;;;;;;;1.4;1.3;;;;;;;;;;;;;
2024/03/19 04:07:21;;;;;;;1.4;1.3;;;;;;;;;;;;;
2024/03/19 04:09:46;;;;;;;1.4;1.3;;;;;;;;;;;;;
2024/03/19 04:12:11;;;;;;;1.5;1.3;;;;;;;;;;;;;
2024/03/19 04:14:37;;;;;;;1.2;1.1;;;;;;;;;;;;;
2024/03/19 04:17:02;;;;;;;1.6;1.4;;;;;;;;;;;;;
2024/03/19 04:19:27;;;;;;;4;2.6;;;;;;;;;;;;;
2024/03/19 04:21:52;;;;;;;2.8;2.2;;;;;;;;;;;;;
2024/03/19 04:24:17;;;;;;;3.5;2.2;;;;;;;;;;;;;
2024/03/19 04:26:42;;;;;;;5.2;3.5;;;;;;;;;;;;;
2024/03/19 04:29:07;;;;;;;3.8;2.7;;;;;;;;;;;;;
2024/03/19 04:31:33;;;;;;;3.7;2.4;;;;;;;;;;;;;
2024/03/19 04:33:58;;;;;;;4.7;2.9;;;;;;;;;;;;;
2024/03/19 04:36:23;;;;;;;17.9;14.6;;;;;;;;;;;;;
2024/03/19 04:38:48;;;;;;;13.7;6.6;;;;;;;;;;;;;
2024/03/19 04:41:13;;;;;;;12.8;7.9;;;;;;;;;;;;;
2024/03/19 04:43:38;;;;;;;52.5;39.9;;;;;;;;;;;;;
2024/03/19 04:46:03;;;;;;;11;9.3;;;;;;;;;;;;;
2024/03/19 04:48:28;;;;;;;7.8;7;;;;;;;;;;;;;
2024/03/19 04:50:54;;;;;;;2.9;2;;;;;;;;;;;;;
2024/03/19 04:53:18;;;;;;;2.4;2;;;;;;;;;;;;;
2024/03/19 04:55:44;;;;;;;2.7;1.6;;;;;;;;;;;;;
2024/03/19 04:58:09;;;;;;;1.4;1.1;;;;;;;;;;;;;
2024/03/19 05:00:33;;;;;;;1.9;1.4;;;;;;;;;;;;;
2024/03/19 05:02:59;;;;;;;1.4;1.2;;;;;;;;;;;;;
2024/03/19 05:05:23;;;;;;;1.5;1.4;;;;;;;;;;;;;
2024/03/19 05:07:49;;;;;;;1.4;1.3;;;;;;;;;;;;;
2024/03/19 05:10:15;;;;;;;1.7;1.6;;;;;;;;;;;;;
2024/03/19 05:12:40;;;;;;;1.9;1.6;;;;;;;;;;;;;
2024/03/19 05:15:06;;;;;;;1.9;1.6;;;;;;;;;;;;;
2024/03/19 05:17:29;;;;;;;2.4;1.9;;;;;;;;;;;;;
2024/03/19 05:19:54;;;;;;;1.9;1.7;;;;;;;;;;;;;
2024/03/19 05:22:19;;;;;;;2.1;1.9;;;;;;;;;;;;;
2024/03/19 05:24:44;;;;;;;2.5;2;;;;;;;;;;;;;
2024/03/19 05:27:10;;;;;;;3;1.9;;;;;;;;;;;;;
2024/03/19 05:29:35;;;;;;;2;1.8;;;;;;;;;;;;;
2024/03/19 05:32:00;;;;;;;1.9;1.7;;;;;;;;;;;;;
2024/03/19 05:34:25;;;;;;;2.4;2;;;;;;;;;;;;;
2024/03/19 05:36:50;;;;;;;2;1.8;;;;;;;;;;;;;
2024/03/19 05:39:16;;;;;;;3.8;2.1;;;;;;;;;;;;;
2024/03/19 05:41:40;;;;;;;3.5;2.3;;;;;;;;;;;;;
2024/03/19 05:44:07;;;;;;;8.4;6.9;;;;;;;;;;;;;
2024/03/19 05:46:30;;;;;;;6.4;5.4;;;;;;;;;;;;;
2024/03/19 05:48:56;;;;;;;6.9;5.4;;;;;;;;;;;;;
2024/03/19 05:51:21;;;;;;;7.5;5.1;;;;;;;;;;;;;
2024/03/19 05:53:46;;;;;;;3.3;2.5;;;;;;;;;;;;;
2024/03/19 05:56:11;;;;;;;3.1;2.2;;;;;;;;;;;;;
2024/03/19 05:58:36;;;;;;;3.5;3.1;;;;;;;;;;;;;
2024/03/19 06:01:02;;;;;;;3.3;2.4;;;;;;;;;;;;;
2024/03/19 06:03:27;;;;;;;2.6;1.7;;;;;;;;;;;;;
2024/03/19 06:05:51;;;;;;;2.3;1.7;;;;;;;;;;;;;
2024/03/19 06:08:16;;;;;;;1.5;1.4;;;;;;;;;;;;;
2024/03/19 06:10:42;;;;;;;1.8;1.5;;;;;;;;;;;;;
2024/03/19 06:13:07;;;;;;;1.6;1.4;;;;;;;;;;;;;
2024/03/19 06:15:32;;;;;;;2.1;1.7;;;;;;;;;;;;;
2024/03/19 06:17:57;;;;;;;1.8;1.4;;;;;;;;;;;;;
2024/03/19 06:20:23;;;;;;;2.2;1.9;;;;;;;;;;;;;
2024/03/19 06:22:47;;;;;;;1.8;1.6;;;;;;;;;;;;;
2024/03/19 06:25:12;;;;;;;0.9;0.9;;;;;;;;;;;;;
2024/03/19 06:27:38;;;;;;;1.3;1.2;;;;;;;;;;;;;
2024/03/19 06:30:03;;;;;;;1.4;1.1;;;;;;;;;;;;;
2024/03/19 06:32:27;;;;;;;2.2;1.3;;;;;;;;;;;;;
2024/03/19 06:34:53;;;;;;;0.8;0.8;;;;;;;;;;;;;
2024/03/19 06:37:18;;;;;;;1.6;1.1;;;;;;;;;;;;;
2024/03/19 06:39:43;;;;;;;1.4;0.9;;;;;;;;;;;;;
2024/03/19 06:42:08;;;;;;;0.7;0.7;;;;;;;;;;;;;
2024/03/19 06:44:33;;;;;;;1;0.9;;;;;;;;;;;;;
2024/03/19 06:46:58;;;;;;;0.7;0.7;;;;;;;;;;;;;
2024/03/19 06:49:24;;;;;;;0.9;0.9;;;;;;;;;;;;;
2024/03/19 06:51:48;;;;;;;0.9;0.8;;;;;;;;;;;;;
2024/03/19 06:54:13;;;;;;;0.8;0.8;;;;;;;;;;;;;
2024/03/19 06:56:39;;;;;;;1.1;1;;;;;;;;;;;;;
2024/03/19 06:59:04;;;;;;;1.3;1;;;;;;;;;;;;;
2024/03/19 07:01:29;;;;;;;1.1;1;;;;;;;;;;;;;
2024/03/19 07:03:54;;;;;;;1.4;0.9;;;;;;;;;;;;;
2024/03/19 07:06:19;;;;;;;1.1;0.7;;;;;;;;;;;;;
2024/03/19 07:08:47;;;;;;;1.7;1;;;;;;;;;;;;;
2024/03/19 07:11:11;;;;;;;7.2;3.3;;;;;;;;;;;;;
2024/03/19 07:13:35;;;;;;;6.3;2.1;;;;;;;;;;;;;
2024/03/19 07:16:00;;;;;;;2.5;2;;;;;;;;;;;;;
2024/03/19 07:18:25;;;;;;;3;2.4;;;;;;;;;;;;;
2024/03/19 07:20:51;;;;;;;2.6;1.8;;;;;;;;;;;;;
2024/03/19 07:23:15;;;;;;;2.7;1.9;;;;;;;;;;;;;
2024/03/19 07:25:40;;;;;;;3.1;2.1;;;;;;;;;;;;;
2024/03/19 07:28:05;;;;;;;2;1.8;;;;;;;;;;;;;
2024/03/19 07:30:31;;;;;;;2.1;1.5;;;;;;;;;;;;;
2024/03/19 07:32:57;;;;;;;1.9;1.6;;;;;;;;;;;;;
2024/03/19 07:35:21;;;;;;;1.6;1.3;;;;;;;;;;;;;
2024/03/19 07:37:46;;;;;;;1.5;1.4;;;;;;;;;;;;;
2024/03/19 07:40:13;;;;;;;2.1;1.7;;;;;;;;;;;;;
2024/03/19 07:42:37;;;;;;;3.5;1.6;;;;;;;;;;;;;
2024/03/19 07:45:02;;;;;;;1.6;1.2;;;;;;;;;;;;;
2024/03/19 07:47:27;;;;;;;1.4;1.3;;;;;;;;;;;;;
2024/03/19 07:49:52;;;;;;;1.2;1.1;;;;;;;;;;;;;
2024/03/19 07:52:17;;;;;;;2.7;1.2;;;;;;;;;;;;;
2024/03/19 07:54:42;;;;;;;1.1;1;;;;;;;;;;;;;
2024/03/19 07:57:07;;;;;;;1;0.9;;;;;;;;;;;;;
2024/03/19 07:59:32;;;;;;;2.4;1;;;;;;;;;;;;;
2024/03/19 08:01:58;;;;;;;1.6;0.8;;;;;;;;;;;;;
2024/03/19 08:04:23;;;;;;;0.8;0.7;;;;;;;;;;;;;
2024/03/19 08:06:47;;;;;;;0.5;0.5;;;;;;;;;;;;;
2024/03/19 08:09:13;;;;;;;2.2;0.6;;;;;;;;;;;;;
2024/03/19 08:11:38;;;;;;;1.3;0.7;;;;;;;;;;;;;
2024/03/19 08:14:03;;;;;;;0.7;0.6;;;;;;;;;;;;;
2024/03/19 08:16:28;;;;;;;0.7;0.7;;;;;;;;;;;;;
2024/03/19 08:18:54;;;;;;;1.2;0.9;;;;;;;;;;;;;
2024/03/19 08:21:18;;;;;;;1.3;0.7;;;;;;;;;;;;;
2024/03/19 08:23:46;;;;;;;1.4;0.8;;;;;;;;;;;;;
2024/03/19 08:26:09;;;;;;;1.2;0.6;;;;;;;;;;;;;
2024/03/19 08:28:33;;;;;;;0.7;0.7;;;;;;;;;;;;;
2024/03/19 08:30:59;;;;;;;1.8;0.8;;;;;;;;;;;;;
2024/03/19 08:33:24;;;;;;;0.8;0.6;;;;;;;;;;;;;
2024/03/19 08:35:51;;;;;;;0.5;0.5;;;;;;;;;;;;;
2024/03/19 08:38:14;;;;;;;0.5;0.5;;;;;;;;;;;;;
2024/03/19 08:40:39;;;;;;;0.9;0.5;;;;;;;;;;;;;
2024/03/19 08:43:04;;;;;;;1.7;1;;;;;;;;;;;;;
2024/03/19 08:45:29;;;;;;;1.3;0.5;;;;;;;;;;;;;
2024/03/19 08:47:55;;;;;;;0.6;0.6;;;;;;;;;;;;;
2024/03/19 08:50:20;;;;;;;0.4;0.4;;;;;;;;;;;;;
2024/03/19 08:52:45;;;;;;;2.2;0.5;;;;;;;;;;;;;
2024/03/19 08:55:12;;;;;;;1.3;0.4;;;;;;;;;;;;;
2024/03/19 08:57:35;;;;;;;0.5;0.5;;;;;;;;;;;;;
2024/03/19 09:00:00;;;;;;;0.5;0.4;;;;;;;;;;;;;
2024/03/19 09:02:26;;;;;;;2.5;0.7;;;;;;;;;;;;;
2024/03/19 09:04:50;;;;;;;0.3;0.3;;;;;;;;;;;;;
2024/03/19 09:07:16;;;;;;;0.4;0.4;;;;;;;;;;;;;
2024/03/19 09:09:44;;;;;;;0.7;0.4;;;;;;;;;;;;;
2024/03/19 09:12:07;;;;;;;0.4;0.4;;;;;;;;;;;;;
2024/03/19 09:14:31;;;;;;;1.7;0.5;;;;;;;;;;;;;
2024/03/19 09:16:56;;;;;;;0.3;0.3;;;;;;;;;;;;;
2024/03/19 09:19:21;;;;;;;0.4;0.4;;;;;;;;;;;;;
2024/03/19 09:21:46;;;;;;;0.9;0.7;;;;;;;;;;;;;
2024/03/19 09:24:11;;;;;;;0.6;0.5;;;;;;;;;;;;;
2024/03/19 09:26:37;;;;;;;0.6;0.6;;;;;;;;;;;;;
2024/03/19 09:29:02;;;;;;;0.7;0.5;;;;;;;;;;;;;
2024/03/19 09:31:27;;;;;;;1.7;1.2;;;;;;;;;;;;;
2024/03/19 09:33:52;;;;;;;0.8;0.5;;;;;;;;;;;;;
2024/03/19 09:36:18;;;;;;;1;0.6;;;;;;;;;;;;;
2024/03/19 09:38:48;;;;;;;0.6;0.6;;;;;;;;;;;;;
2024/03/19 09:41:07;;;;;;;1.3;0.5;;;;;;;;;;;;;
2024/03/19 09:43:32;;;;;;;1.3;0.6;;;;;;;;;;;;;
2024/03/19 09:45:57;;;;;;;0.4;0.4;;;;;;;;;;;;;
2024/03/19 09:48:22;;;;;;;1.1;0.6;;;;;;;;;;;;;
2024/03/19 09:50:48;;;;;;;0.4;0.4;;;;;;;;;;;;;
2024/03/19 09:53:13;;;;;;;0.6;0.5;;;;;;;;;;;;;
2024/03/19 09:55:38;;;;;;;0.6;0.5;;;;;;;;;;;;;
2024/03/19 09:58:03;;;;;;;1.3;0.5;;;;;;;;;;;;;
2024/03/19 10:00:28;;;;;;;0.5;0.5;;;;;;;;;;;;;
2024/03/19 10:02:53;;;;;;;0.4;0.4;;;;;;;;;;;;;
2024/03/19 10:05:19;;;;;;;0.6;0.6;;;;;;;;;;;;;
2024/03/19 10:07:43;;;;;;;0.9;0.5;;;;;;;;;;;;;
2024/03/19 10:10:09;;;;;;;1.3;0.5;;;;;;;;;;;;;
2024/03/19 10:12:34;;;;;;;0.2;0.2;;;;;;;;;;;;;
2024/03/19 10:14:59;;;;;;;0.6;0.4;;;;;;;;;;;;;
2024/03/19 10:17:24;;;;;;;0.9;0.4;;;;;;;;;;;;;
2024/03/19 10:19:51;;;;;;;0.6;0.4;;;;;;;;;;;;;
2024/03/19 10:22:14;;;;;;;0.5;0.4;;;;;;;;;;;;;
2024/03/19 10:24:39;;;;;;;1.7;0.5;;;;;;;;;;;;;
2024/03/19 10:27:04;;;;;;;0.8;0.4;;;;;;;;;;;;;
2024/03/19 10:29:30;;;;;;;0.7;0.5;;;;;;;;;;;;;
2024/03/19 10:31:55;;;;;;;0.4;0.4;;;;;;;;;;;;;
2024/03/19 10:34:20;;;;;;;0.8;0.6;;;;;;;;;;;;;
2024/03/19 10:36:44;;;;;;;0.5;0.5;;;;;;;;;;;;;
2024/03/19 10:39:10;;;;;;;0.5;0.5;;;;;;;;;;;;;
2024/03/19 10:41:35;;;;;;;0.4;0.4;;;;;;;;;;;;;
2024/03/19 10:44:01;;;;;;;2.1;0.5;;;;;;;;;;;;;
2024/03/19 10:46:25;;;;;;;3.4;0.7;;;;;;;;;;;;;
2024/03/19 10:48:50;;;;;;;0.7;0.6;;;;;;;;;;;;;
2024/03/19 10:51:17;;;;;;;0.5;0.5;;;;;;;;;;;;;
2024/03/19 10:53:41;;;;;;;1.2;0.6;;;;;;;;;;;;;
2024/03/19 10:56:06;;;;;;;1.8;0.5;;;;;;;;;;;;;
2024/03/19 10:58:31;;;;;;;1.4;0.8;;;;;;;;;;;;;
2024/03/19 11:00:56;;;;;;;3.2;1;;;;;;;;;;;;;
2024/03/19 11:03:21;;;;;;;1.2;0.9;;;;;;;;;;;;;
2024/03/19 11:05:46;;;;;;;1.4;0.8;;;;;;;;;;;;;
2024/03/19 11:08:12;;;;;;;2;0.9;;;;;;;;;;;;;
2024/03/19 11:10:37;;;;;;;1.5;0.9;;;;;;;;;;;;;
2024/03/19 11:13:02;;;;;;;3.2;1;;;;;;;;;;;;;
2024/03/19 11:15:27;;;;;;;1;0.6;;;;;;;;;;;;;
2024/03/19 11:17:52;;;;;;;0.9;0.5;;;;;;;;;;;;;
2024/03/19 11:20:18;;;;;;;1.1;0.6;;;;;;;;;;;;;
2024/03/19 11:22:43;;;;;;;1.1;0.6;;;;;;;;;;;;;
2024/03/19 11:25:08;;;;;;;0.6;0.5;;;;;;;;;;;;;
2024/03/19 11:27:33;;;;;;;0.7;0.5;;;;;;;;;;;;;
2024/03/19 11:29:58;;;;;;;0.4;0.4;;;;;;;;;;;;;
2024/03/19 11:32:23;;;;;;;0.5;0.4;;;;;;;;;;;;;
2024/03/19 11:34:48;;;;;;;0.9;0.4;;;;;;;;;;;;;
2024/03/19 11:37:13;;;;;;;0.4;0.4;;;;;;;;;;;;;
2024/03/19 11:39:38;;;;;;;1;0.9;;;;;;;;;;;;;
2024/03/19 11:42:04;;;;;;;1.5;0.9;;;;;;;;;;;;;
2024/03/19 11:44:29;;;;;;;1.1;0.9;;;;;;;;;;;;;
2024/03/19 11:46:54;;;;;;;0.9;0.8;;;;;;;;;;;;;
2024/03/19 11:49:19;;;;;;;0.7;0.6;;;;;;;;;;;;;
2024/03/19 11:51:44;;;;;;;0.7;0.6;;;;;;;;;;;;;
2024/03/19 11:54:09;;;;;;;0.7;0.7;;;;;;;;;;;;;
2024/03/19 11:56:34;;;;;;;1.1;0.9;;;;;;;;;;;;;
2024/03/19 11:58:59;;;;;;;0.9;0.7;;;;;;;;;;;;;
2024/03/19 12:01:25;;;;;;;0.9;0.7;;;;;;;;;;;;;
2024/03/19 12:03:50;;;;;;;0.9;0.9;;;;;;;;;;;;;
2024/03/19 12:06:15;;;;;;;1.3;0.9;;;;;;;;;;;;;
2024/03/19 12:08:40;;;;;;;0.9;0.8;;;;;;;;;;;;;
2024/03/19 12:11:05;;;;;;;1.8;0.8;;;;;;;;;;;;;
2024/03/19 12:13:30;;;;;;;0.8;0.8;;;;;;;;;;;;;
2024/03/19 12:15:55;;;;;;;0.7;0.7;;;;;;;;;;;;;
2024/03/19 12:18:20;;;;;;;1;0.6;;;;;;;;;;;;;
2024/03/19 12:20:45;;;;;;;1.7;0.6;;;;;;;;;;;;;
2024/03/19 12:23:10;;;;;;;0.5;0.5;;;;;;;;;;;;;
2024/03/19 12:25:36;;;;;;;0.7;0.5;;;;;;;;;;;;;
2024/03/19 12:28:01;;;;;;;0.5;0.5;;;;;;;;;;;;;
2024/03/19 12:30:26;;;;;;;0.9;0.6;;;;;;;;;;;;;
2024/03/19 12:32:59;;;;;;;0.4;0.4;;;;;;;;;;;;;
2024/03/19 12:35:16;;;;;;;0.5;0.5;;;;;;;;;;;;;
2024/03/19 12:37:41;;;;;;;0.5;0.5;;;;;;;;;;;;;
2024/03/19 12:40:10;;;;;;;0.6;0.5;;;;;;;;;;;;;
2024/03/19 12:42:31;;;;;;;1;0.6;;;;;;;;;;;;;
2024/03/19 12:44:56;;;;;;;0.4;0.4;;;;;;;;;;;;;
2024/03/19 12:47:22;;;;;;;1.3;0.5;;;;;;;;;;;;;
2024/03/19 12:49:47;;;;;;;0.6;0.6;;;;;;;;;;;;;
2024/03/19 12:52:11;;;;;;;1;0.7;;;;;;;;;;;;;
2024/03/19 12:54:37;;;;;;;0.7;0.5;;;;;;;;;;;;;
2024/03/19 12:57:03;;;;;;;0.8;0.5;;;;;;;;;;;;;
2024/03/19 12:59:27;;;;;;;0.5;0.5;;;;;;;;;;;;;
2024/03/19 13:01:52;;;;;;;0.6;0.5;;;;;;;;;;;;;
2024/03/19 13:04:17;;;;;;;0.5;0.5;;;;;;;;;;;;;
2024/03/19 13:06:42;;;;;;;0.9;0.7;;;;;;;;;;;;;
2024/03/19 13:09:08;;;;;;;0.4;0.4;;;;;;;;;;;;;
2024/03/19 13:11:33;;;;;;;0.7;0.5;;;;;;;;;;;;;
2024/03/19 13:13:58;;;;;;;0.6;0.3;;;;;;;;;;;;;
2024/03/19 13:16:22;;;;;;;0.5;0.5;;;;;;;;;;;;;
2024/03/19 13:18:47;;;;;;;0.6;0.6;;;;;;;;;;;;;
2024/03/19 13:21:13;;;;;;;0.9;0.5;;;;;;;;;;;;;
2024/03/19 13:23:38;;;;;;;0.5;0.5;;;;;;;;;;;;;
2024/03/19 13:26:04;;;;;;;1.1;0.5;;;;;;;;;;;;;
2024/03/19 13:28:28;;;;;;;1.1;0.5;;;;;;;;;;;;;
2024/03/19 13:30:53;;;;;;;1.5;0.4;;;;;;;;;;;;;
2024/03/19 13:33:18;;;;;;;0.4;0.3;;;;;;;;;;;;;
2024/03/19 13:35:43;;;;;;;1.7;0.4;;;;;;;;;;;;;
2024/03/19 13:38:09;;;;;;;0.4;0.4;;;;;;;;;;;;;
2024/03/19 13:40:34;;;;;;;0.7;0.5;;;;;;;;;;;;;
2024/03/19 13:42:59;;;;;;;1.5;0.5;;;;;;;;;;;;;
2024/03/19 13:45:24;;;;;;;1;0.7;;;;;;;;;;;;;
2024/03/19 13:47:49;;;;;;;0.8;0.6;;;;;;;;;;;;;
2024/03/19 13:50:14;;;;;;;1.2;0.5;;;;;;;;;;;;;
2024/03/19 13:52:39;;;;;;;1.4;0.5;;;;;;;;;;;;;
2024/03/19 13:55:04;;;;;;;2.4;0.6;;;;;;;;;;;;;
2024/03/19 13:57:30;;;;;;;0.6;0.5;;;;;;;;;;;;;
2024/03/19 13:59:55;;;;;;;0.3;0.3;;;;;;;;;;;;;
2024/03/19 14:02:20;;;;;;;1.5;0.4;;;;;;;;;;;;;
2024/03/19 14:04:45;;;;;;;0.5;0.4;;;;;;;;;;;;;
2024/03/19 14:07:10;;;;;;;1.9;0.5;;;;;;;;;;;;;
2024/03/19 14:09:35;;;;;;;0.5;0.5;;;;;;;;;;;;;
2024/03/19 14:12:00;;;;;;;0.7;0.7;;;;;;;;;;;;;
2024/03/19 14:14:27;;;;;;;0.7;0.7;;;;;;;;;;;;;
2024/03/19 14:16:50;;;;;;;0.9;0.7;;;;;;;;;;;;;
2024/03/19 14:19:15;;;;;;;1;0.7;;;;;;;;;;;;;
2024/03/19 14:21:42;;;;;;;1.3;0.8;;;;;;;;;;;;;
2024/03/19 14:24:06;;;;;;;0.6;0.6;;;;;;;;;;;;;
2024/03/19 14:26:31;;;;;;;1.3;0.7;;;;;;;;;;;;;
2024/03/19 14:28:56;;;;;;;0.9;0.7;;;;;;;;;;;;;
2024/03/19 14:31:22;;;;;;;1.4;0.9;;;;;;;;;;;;;
2024/03/19 14:33:46;;;;;;;0.5;0.5;;;;;;;;;;;;;
2024/03/19 14:36:11;;;;;;;0.6;0.6;;;;;;;;;;;;;
2024/03/19 14:38:37;;;;;;;0.7;0.7;;;;;;;;;;;;;
2024/03/19 14:41:02;;;;;;;1.7;0.7;;;;;;;;;;;;;
2024/03/19 14:43:27;;;;;;;2.3;0.7;;;;;;;;;;;;;
2024/03/19 14:45:52;;;;;;;0.7;0.5;;;;;;;;;;;;;
2024/03/19 14:48:17;;;;;;;0.6;0.6;;;;;;;;;;;;;
2024/03/19 14:50:42;;;;;;;1.3;0.6;;;;;;;;;;;;;
2024/03/19 14:53:07;;;;;;;0.9;0.4;;;;;;;;;;;;;
2024/03/19 14:55:32;;;;;;;0.8;0.6;;;;;;;;;;;;;
2024/03/19 14:57:57;;;;;;;1.6;0.8;;;;;;;;;;;;;
2024/03/19 15:00:23;;;;;;;1.1;0.7;;;;;;;;;;;;;
2024/03/19 15:02:49;;;;;;;0.5;0.5;;;;;;;;;;;;;
2024/03/19 15:05:13;;;;;;;2.5;0.7;;;;;;;;;;;;;
2024/03/19 15:07:37;;;;;;;0.8;0.8;;;;;;;;;;;;;
2024/03/19 15:10:04;;;;;;;1.3;0.9;;;;;;;;;;;;;
2024/03/19 15:12:28;;;;;;;0.7;0.6;;;;;;;;;;;;;
2024/03/19 15:14:53;;;;;;;0.6;0.6;;;;;;;;;;;;;
2024/03/19 15:17:18;;;;;;;0.5;0.5;;;;;;;;;;;;;
2024/03/19 15:19:44;;;;;;;2.2;1;;;;;;;;;;;;;
2024/03/19 15:22:08;;;;;;;0.8;0.7;;;;;;;;;;;;;
2024/03/19 15:24:34;;;;;;;1;0.6;;;;;;;;;;;;;
2024/03/19 15:26:59;;;;;;;0.7;0.7;;;;;;;;;;;;;
2024/03/19 15:29:24;;;;;;;0.6;0.6;;;;;;;;;;;;;
2024/03/19 15:31:49;;;;;;;1.2;0.7;;;;;;;;;;;;;
2024/03/19 15:34:14;;;;;;;1.2;0.8;;;;;;;;;;;;;
2024/03/19 15:36:40;;;;;;;1.6;0.8;;;;;;;;;;;;;
2024/03/19 15:39:07;;;;;;;2.3;0.7;;;;;;;;;;;;;
2024/03/19 15:41:30;;;;;;;0.7;0.7;;;;;;;;;;;;;
2024/03/19 15:43:54;;;;;;;0.8;0.8;;;;;;;;;;;;;
2024/03/19 15:46:19;;;;;;;1.5;0.7;;;;;;;;;;;;;
2024/03/19 15:48:45;;;;;;;1.2;0.7;;;;;;;;;;;;;
2024/03/19 15:51:10;;;;;;;0.8;0.7;;;;;;;;;;;;;
2024/03/19 15:53:36;;;;;;;1.4;0.6;;;;;;;;;;;;;
2024/03/19 15:56:00;;;;;;;2.1;0.8;;;;;;;;;;;;;
2024/03/19 15:58:26;;;;;;;1.4;0.8;;;;;;;;;;;;;
2024/03/19 16:00:50;;;;;;;1;0.9;;;;;;;;;;;;;
2024/03/19 16:03:15;;;;;;;1.4;0.5;;;;;;;;;;;;;
2024/03/19 16:05:42;;;;;;;0.6;0.5;;;;;;;;;;;;;
2024/03/19 16:08:06;;;;;;;1.7;0.9;;;;;;;;;;;;;
2024/03/19 16:10:31;;;;;;;2.3;0.9;;;;;;;;;;;;;
2024/03/19 16:12:56;;;;;;;0.5;0.5;;;;;;;;;;;;;
2024/03/19 16:15:21;;;;;;;1.2;0.7;;;;;;;;;;;;;
2024/03/19 16:17:46;;;;;;;1.4;0.9;;;;;;;;;;;;;
2024/03/19 16:20:11;;;;;;;1.4;1;;;;;;;;;;;;;
2024/03/19 16:22:37;;;;;;;1.2;0.8;;;;;;;;;;;;;
2024/03/19 16:25:02;;;;;;;0.9;0.8;;;;;;;;;;;;;
2024/03/19 16:27:28;;;;;;;1.1;1;;;;;;;;;;;;;
2024/03/19 16:29:52;;;;;;;2.1;1.4;;;;;;;;;;;;;
2024/03/19 16:32:20;;;;;;;2.6;1.8;;;;;;;;;;;;;
2024/03/19 16:34:42;;;;;;;4.4;2.4;;;;;;;;;;;;;
2024/03/19 16:37:08;;;;;;;4.3;2;;;;;;;;;;;;;
2024/03/19 16:39:32;;;;;;;4;1.8;;;;;;;;;;;;;
2024/03/19 16:41:58;;;;;;;5.6;1.8;;;;;;;;;;;;;
2024/03/19 16:44:23;;;;;;;2.5;1.3;;;;;;;;;;;;;
2024/03/19 16:46:48;;;;;;;2.2;1.4;;;;;;;;;;;;;
2024/03/19 16:49:14;;;;;;;1.2;0.8;;;;;;;;;;;;;
2024/03/19 16:51:38;;;;;;;0.7;0.7;;;;;;;;;;;;;
2024/03/19 16:54:03;;;;;;;1.4;1.2;;;;;;;;;;;;;
2024/03/19 16:56:29;;;;;;;1.7;1.3;;;;;;;;;;;;;
2024/03/19 16:58:54;;;;;;;1.5;0.9;;;;;;;;;;;;;
2024/03/19 17:01:21;;;;;;;0.9;0.9;;;;;;;;;;;;;
2024/03/19 17:03:44;;;;;;;1.3;1;;;;;;;;;;;;;
2024/03/19 17:06:09;;;;;;;1.3;1;;;;;;;;;;;;;
2024/03/19 17:08:34;;;;;;;1.9;1.5;;;;;;;;;;;;;
2024/03/19 17:11:00;;;;;;;2.1;1.4;;;;;;;;;;;;;
2024/03/19 17:13:24;;;;;;;1.1;0.9;;;;;;;;;;;;;
2024/03/19 17:15:50;;;;;;;1.1;1;;;;;;;;;;;;;
2024/03/19 17:18:14;;;;;;;1.6;1;;;;;;;;;;;;;
2024/03/19 17:20:40;;;;;;;2.2;1.1;;;;;;;;;;;;;
2024/03/19 17:23:05;;;;;;;2.2;1.1;;;;;;;;;;;;;
2024/03/19 17:25:30;;;;;;;4.4;2.1;;;;;;;;;;;;;
2024/03/19 17:27:56;;;;;;;2.6;1.6;;;;;;;;;;;;;
2024/03/19 17:30:20;;;;;;;3.1;1.7;;;;;;;;;;;;;
2024/03/19 17:32:45;;;;;;;2.8;1.8;;;;;;;;;;;;;
2024/03/19 17:35:11;;;;;;;2;1.3;;;;;;;;;;;;;
2024/03/19 17:37:37;;;;;;;3;1.6;;;;;;;;;;;;;
2024/03/19 17:40:03;;;;;;;2.2;1.9;;;;;;;;;;;;;
2024/03/19 17:42:26;;;;;;;2.1;1.5;;;;;;;;;;;;;
2024/03/19 17:44:51;;;;;;;2.9;1.7;;;;;;;;;;;;;
2024/03/19 17:47:16;;;;;;;1.5;1.3;;;;;;;;;;;;;
2024/03/19 17:49:41;;;;;;;2.3;1.5;;;;;;;;;;;;;
2024/03/19 17:52:06;;;;;;;2;1.8;;;;;;;;;;;;;
2024/03/19 17:54:31;;;;;;;2.7;2.3;;;;;;;;;;;;;
2024/03/19 17:56:56;;;;;;;3.4;2.5;;;;;;;;;;;;;
2024/03/19 17:59:21;;;;;;;3.1;2.3;;;;;;;;;;;;;
2024/03/19 18:01:46;;;;;;;3.6;2.3;;;;;;;;;;;;;
2024/03/19 18:04:12;;;;;;;3.4;2.4;;;;;;;;;;;;;
2024/03/19 18:06:37;;;;;;;8.7;5.2;;;;;;;;;;;;;
2024/03/19 18:09:02;;;;;;;15.6;9.6;;;;;;;;;;;;;
2024/03/19 18:11:27;;;;;;;21.9;13;;;;;;;;;;;;;
2024/03/19 18:13:52;;;;;;;18.6;11.2;;;;;;;;;;;;;
2024/03/19 18:16:17;;;;;;;16.4;9.6;;;;;;;;;;;;;
2024/03/19 18:18:44;;;;;;;14;9.5;;;;;;;;;;;;;
2024/03/19 18:21:08;;;;;;;7.7;5.2;;;;;;;;;;;;;
2024/03/19 18:23:33;;;;;;;6.7;4.6;;;;;;;;;;;;;
2024/03/19 18:25:58;;;;;;;8.8;5.9;;;;;;;;;;;;;
2024/03/19 18:28:23;;;;;;;7.6;4.8;;;;;;;;;;;;;
2024/03/19 18:30:48;;;;;;;7.4;4.8;;;;;;;;;;;;;
2024/03/19 18:33:14;;;;;;;11.1;5.9;;;;;;;;;;;;;
2024/03/19 18:35:39;;;;;;;8.9;5.4;;;;;;;;;;;;;
2024/03/19 18:38:03;;;;;;;7.5;4.3;;;;;;;;;;;;;
2024/03/19 18:40:28;;;;;;;3.1;1.8;;;;;;;;;;;;;
2024/03/19 18:42:57;;;;;;;6;4.3;;;;;;;;;;;;;
2024/03/19 18:45:19;;;;;;;12.7;5.7;;;;;;;;;;;;;
2024/03/19 18:47:44;;;;;;;8.6;5.9;;;;;;;;;;;;;
2024/03/19 18:50:09;;;;;;;8.6;5.9;;;;;;;;;;;;;
2024/03/19 18:52:34;;;;;;;7.9;5;;;;;;;;;;;;;
2024/03/19 18:54:59;;;;;;;6.1;3.5;;;;;;;;;;;;;
2024/03/19 18:57:24;;;;;;;6.5;4;;;;;;;;;;;;;
2024/03/19 18:59:50;;;;;;;5.8;3.8;;;;;;;;;;;;;
2024/03/19 19:02:15;;;;;;;6.1;3.1;;;;;;;;;;;;;
2024/03/19 19:04:40;;;;;;;7.2;3;;;;;;;;;;;;;
2024/03/19 19:07:06;;;;;;;6.2;4.1;;;;;;;;;;;;;
2024/03/19 19:09:35;;;;;;;8.4;4.2;;;;;;;;;;;;;
2024/03/19 19:11:56;;;;;;;11.4;6.9;;;;;;;;;;;;;
2024/03/19 19:14:21;;;;;;;10.7;6.7;;;;;;;;;;;;;
2024/03/19 19:16:46;;;;;;;4.5;3.3;;;;;;;;;;;;;
2024/03/19 19:19:13;;;;;;;5.8;2.6;;;;;;;;;;;;;
2024/03/19 19:21:36;;;;;;;3.7;2.8;;;;;;;;;;;;;
2024/03/19 19:24:01;;;;;;;4.6;3.2;;;;;;;;;;;;;
2024/03/19 19:26:26;;;;;;;5.8;3.6;;;;;;;;;;;;;
2024/03/19 19:28:51;;;;;;;4.2;2.6;;;;;;;;;;;;;
2024/03/19 19:31:17;;;;;;;30.6;16;;;;;;;;;;;;;
2024/03/19 19:33:42;;;;;;;29.3;17;;;;;;;;;;;;;
2024/03/19 19:36:07;;;;;;;7.2;4.6;;;;;;;;;;;;;
2024/03/19 19:38:32;;;;;;;22.9;19.7;;;;;;;;;;;;;
2024/03/19 19:40:57;;;;;;;2.6;1.9;;;;;;;;;;;;;
2024/03/19 19:43:22;;;;;;;4.8;2.2;;;;;;;;;;;;;
2024/03/19 19:45:47;;;;;;;3.5;2.9;;;;;;;;;;;;;
2024/03/19 19:48:12;;;;;;;5.4;3.5;;;;;;;;;;;;;
2024/03/19 19:50:38;;;;;;;6.7;4.5;;;;;;;;;;;;;
2024/03/19 19:53:03;;;;;;;5.6;4;;;;;;;;;;;;;
2024/03/19 19:55:28;;;;;;;5.4;3.5;;;;;;;;;;;;;
2024/03/19 19:57:53;;;;;;;3.9;2.9;;;;;;;;;;;;;
2024/03/19 20:00:18;;;;;;;6.3;2.9;;;;;;;;;;;;;
2024/03/19 20:02:43;;;;;;;6;3.3;;;;;;;;;;;;;
2024/03/19 20:05:09;;;;;;;7;3.8;;;;;;;;;;;;;
2024/03/19 20:07:34;;;;;;;4.8;2.6;;;;;;;;;;;;;
2024/03/19 20:09:58;;;;;;;5;2.8;;;;;;;;;;;;;
2024/03/19 20:12:23;;;;;;;3.8;2.4;;;;;;;;;;;;;
2024/03/19 20:14:48;;;;;;;3.3;2.5;;;;;;;;;;;;;
2024/03/19 20:17:14;;;;;;;5.6;4.3;;;;;;;;;;;;;
2024/03/19 20:19:40;;;;;;;8.8;4.9;;;;;;;;;;;;;
2024/03/19 20:22:04;;;;;;;9.3;5.8;;;;;;;;;;;;;
2024/03/19 20:24:29;;;;;;;8.3;5.5;;;;;;;;;;;;;
2024/03/19 20:26:54;;;;;;;7.1;4.4;;;;;;;;;;;;;
2024/03/19 20:29:19;;;;;;;6;4.3;;;;;;;;;;;;;
2024/03/19 20:31:44;;;;;;;6.1;3.6;;;;;;;;;;;;;